FW0386 Weather Reports


Display with metric or nautical units.
time (UTC)temp
F
wind
direction
speed
MPH
gust
MPH
rain 1hr
in
rain 24hr
in
rain mn
in
humidity
%
barometer
mb
20221203191511 35 114 4.0 10.0 0.02 0.12 0.12 91 1021.9
20221203190008 35 97 3.0 9.0 0.02 0.11 0.11 91 1021.9
20221203184517 35 127 4.0 9.0 0.02 0.10 0.10 91 1021.9
20221203183006 34 58 4.0 9.0 0.02 0.10 0.10 91 1021.7
20221203181505 34 89 3.0 9.0 0.02 0.09 0.09 91 1021.8
20221203180005 34 82 4.0 11.0 0.02 0.09 0.09 91 1021.8
20221203174600 34 79 5.0 10.0 0.02 0.09 0.09 91 1021.9
20221203173100 34 115 4.0 9.0 0.02 0.08 0.08 91 1021.9
20221203171558 34 136 5.0 10.0 0.02 0.07 0.07 91 1022.0
20221203170058 34 92 3.0 8.0 0.02 0.06 0.06 91 1022.0
20221203164555 34 122 4.0 9.0 0.02 0.06 0.06 91 1022.0
20221203163052 34 101 3.0 9.0 0.02 0.06 0.06 91 1022.1
20221203161551 33 123 3.0 11.0 0.02 0.06 0.06 91 1022.1
20221203160055 33 117 4.0 8.0 0.02 0.05 0.05 91 1022.2
20221203154546 33 130 3.0 11.0 0.02 0.05 0.05 91 1022.1
20221203153051 33 107 4.0 10.0 0.02 0.04 0.04 91 1022.1
20221203151545 33 143 3.0 7.0 0.02 0.04 0.04 91 1022.2
20221203150046 33 98 2.0 8.0 0.01 0.03 0.03 91 1022.2
20221203144539 33 101 4.0 9.0 0.02 0.03 0.03 91 1022.1
20221203143043 33 120 5.0 10.0 0.01 0.02 0.02 91 1022.2
20221203141538 33 101 3.0 9.0 0.01 0.02 0.02 91 1022.2
20221203140036 33 123 4.0 10.0 0.02 0.02 0.02 91 1022.4
20221203134535 33 96 5.0 10.0 0.01 0.02 0.02 90 1022.3
20221203133034 33 102 5.0 10.0 0.02 0.02 0.02 90 1022.2
20221203131532 33 88 5.0 10.0 0.01 0.01 0.01 90 1022.3
20221203130032 33 113 3.0 11.0 0.01 0.01 0.01 90 1022.4
20221203124627 33 91 5.0 10.0 0.01 0.01 0.01 90 1022.6
20221203123027 32 107 5.0 9.0 0.00 0.00 0.00 90 1022.5
20221203121525 32 112 4.0 8.0 0.00 0.00 0.00 90 1022.6
20221203120031 32 119 5.0 10.0 0.00 0.00 0.00 90 1022.7
20221203114552 32 110 4.0 12.0 0.00 0.00 0.00 90 1022.7
20221203113051 32 104 3.0 10.0 0.00 0.00 0.00 90 1022.9
20221203111548 32 134 5.0 11.0 0.00 0.00 0.00 90 1022.9
20221203110046 32 117 4.0 10.0 0.00 0.00 0.00 90 1023.0
20221203104545 32 94 3.0 8.0 0.00 0.00 0.00 90 1023.3
20221203103044 32 98 4.0 9.0 0.00 0.00 0.00 90 1023.3
20221203101549 32 88 4.0 8.0 0.00 0.00 0.00 90 1023.4
20221203100042 32 82 3.0 9.0 0.00 0.00 0.00 90 1023.4
20221203094540 32 76 4.0 9.0 0.00 0.00 0.00 90 1023.4
20221203093058 32 96 4.0 12.0 0.00 0.00 0.00 90 1023.7
20221203091537 32 83 3.0 11.0 0.00 0.00 0.00 90 1023.8
20221203090037 32 88 3.0 7.0 0.00 0.00 0.00 90 1023.6
20221203084535 32 72 3.0 8.0 0.00 0.00 0.00 90 1023.7
20221203083035 32 115 3.0 6.0 0.00 0.00 0.00 90 1023.7
20221203081529 32 120 2.0 8.0 0.00 0.00 0.00 90 1023.7
20221203080030 32 74 3.0 9.0 0.00 0.00 0.00 90 1023.7
20221203074529 32 120 4.0 9.0 0.00 0.00 0.00 90 1023.7
20221203073028 32 52 3.0 6.0 0.00 0.00 0.00 90 1023.8
20221203071537 32 126 2.0 8.0 0.00 0.00 0.00 90 1023.7
20221203070030 32 115 2.0 7.0 0.00 0.00 0.00 90 1023.7
20221203064556 32 103 3.0 7.0 0.00 0.00 0.00 90 1023.6
20221203063105 32 68 2.0 7.0 0.00 0.00 0.00 90 1023.4
20221203061552 32 101 2.0 9.0 0.00 0.00 0.00 90 1023.4
20221203060051 32 108 2.0 6.0 0.00 0.00 0.00 90 1023.5
20221203054550 31 88 3.0 10.0 0.00 0.00 0.00 90 1023.5
20221203053049 31 98 3.0 6.0 0.00 0.00 0.00 90 1023.5
20221203051545 31 104 3.0 9.0 0.00 0.00 0.00 90 1023.5
20221203050048 31 98 2.0 7.0 0.00 0.00 0.00 90 1023.4
20221203044558 31 70 4.0 8.0 0.00 0.00 0.00 90 1023.2
20221203043045 31 80 3.0 8.0 0.00 0.00 0.00 90 1023.4
20221203041541 31 129 2.0 7.0 0.00 0.00 0.00 90 1023.3
20221203040040 31 53 1.0 11.0 0.00 0.00 0.00 90 1023.3
20221203034537 31 90 4.0 8.0 0.00 0.00 0.00 90 1023.4
20221203033035 31 99 2.0 7.0 0.00 0.00 0.00 90 1023.4
20221203031541 31 93 5.0 8.0 0.00 0.00 0.00 90 1023.4
20221203030033 31 86 4.0 11.0 0.00 0.00 0.00 90 1023.4
20221203024530 31 81 2.0 6.0 0.00 0.00 0.00 90 1023.5
20221203023031 31 115 2.0 7.0 0.00 0.00 0.00 90 1023.5
20221203021529 31 207 3.0 7.0 0.00 0.00 0.00 90 1023.5
20221203020038 31 86 3.0 7.0 0.00 0.00 0.00 90 1023.6
20221203014532 31 112 2.0 7.0 0.00 0.00 0.00 90 1023.6
20221203013026 31 90 4.0 8.0 0.00 0.00 0.00 91 1023.7
20221203011521 31 68 4.0 10.0 0.00 0.00 0.00 91 1023.6
20221203010049 31 91 4.0 7.0 0.00 0.00 0.00 91 1023.8
20221203004548 31 95 4.0 9.0 0.00 0.00 0.00 91 1023.7
20221203003022 30 90 4.0 8.0 0.00 0.00 0.00 92 1023.6
20221203001516 30 90 2.0 9.0 0.00 0.00 0.00 92 1023.7
20221203000044 30 87 4.0 9.0 0.00 0.00 0.00 92 1023.8
20221202234547 30 101 4.0 10.0 0.00 0.00 0.00 92 1023.7
20221202233039 30 120 3.0 8.0 0.00 0.00 0.00 92 1023.9
20221202231539 30 104 4.0 9.0 0.00 0.00 0.00 91 1023.9
20221202230041 30 82 3.0 9.0 0.00 0.00 0.00 91 1023.8
20221202224533 30 85 4.0 11.0 0.00 0.00 0.00 91 1023.7
20221202223003 30 68 2.0 8.0 0.00 0.00 0.00 91 1023.8
20221202221501 30 124 3.0 7.0 0.00 0.00 0.00 91 1023.8
20221202220102 30 82 2.0 7.0 0.00 0.00 0.00 91 1023.8
20221202214558 30 66 3.0 7.0 0.00 0.00 0.00 91 1023.7
20221202213057 30 76 2.0 6.0 0.00 0.00 0.00 91 1023.6
20221202211601 30 56 3.0 6.0 0.00 0.00 0.00 91 1023.5
20221202210028 30 102 3.0 7.0 0.00 0.00 0.00 91 1023.7
20221202204529 30 89 2.0 8.0 0.00 0.00 0.00 90 1023.7
20221202203024 30 115 2.0 8.0 0.00 0.00 0.00 90 1023.7
20221202201522 30 72 3.0 8.0 0.00 0.00 0.00 90 1023.7
20221202200020 30 70 2.0 8.0 0.00 0.00 0.00 90 1023.6
20221202194528 30 61 2.0 6.0 0.00 0.00 0.00 90 1023.5
20221202193018 30 116 3.0 10.0 0.00 0.00 0.00 90 1023.4